O'Brien, Oregon
Current Conditions -  °F | °C
As of 3:56 PM on Sunday 23 Nov 2014 (Local Time) from KBOK Reporting Station
Haze Haze  
Wind Chill: 13°   Ceiling: Unl
Heat Index: 13°   Visibility: 5mi
Dew Point:   Wind: 0mph
Humidity: 80%   Direction: NA
Pressure: 30.35"   Gusts: NA
Location:  42.07°N, 123.71°W
Report Text: KBOK 232356Z AUTO 00000KT 5SM HZ CLR 13/09 A3035 RMK AO2 50000 T01270094 10133 20088 SLP280
Loading
Personal Weather Stations






























Interactive Weather Map New forecast layout! Learn more

10-Day Weather Forecast

Advertisements
Track Severe Weather on mobile